createdAt,value
2023-03-12T00:01:24.233Z,2.72
2023-03-12T00:03:54.163Z,2.69
2023-03-12T00:06:23.020Z,2.63
2023-03-12T00:08:56.218Z,2.63
2023-03-12T00:11:26.285Z,2.62
2023-03-12T00:13:57.055Z,2.58
2023-03-12T00:16:25.896Z,2.53
2023-03-12T00:18:57.055Z,2.53
2023-03-12T00:21:26.019Z,2.41
2023-03-12T00:23:55.003Z,2.37
2023-03-12T00:26:23.648Z,2.35
2023-03-12T00:28:53.953Z,2.20
2023-03-12T00:31:24.419Z,2.07
2023-03-12T00:33:52.721Z,2.08
2023-03-12T00:36:24.371Z,1.84
2023-03-12T00:38:52.992Z,1.83
2023-03-12T00:41:21.964Z,1.74
2023-03-12T00:43:51.205Z,1.79
2023-03-12T00:46:23.101Z,1.58
2023-03-12T00:48:51.783Z,1.52
2023-03-12T00:51:20.341Z,1.33
2023-03-12T00:53:48.869Z,1.31
2023-03-12T00:56:17.161Z,1.27
2023-03-12T00:58:46.367Z,1.38
2023-03-12T01:01:15.093Z,1.33
2023-03-12T01:03:44.957Z,1.18
2023-03-12T01:06:13.609Z,1.08
2023-03-12T01:08:42.046Z,1.05
2023-03-12T01:11:14.267Z,0.98
2023-03-12T01:13:42.761Z,0.89
2023-03-12T01:16:11.056Z,0.90
2023-03-12T01:18:39.369Z,0.85
2023-03-12T01:21:09.061Z,0.81
2023-03-12T01:23:38.495Z,0.71
2023-03-12T01:26:06.966Z,0.68
2023-03-12T01:28:35.248Z,0.61
2023-03-12T01:31:08.441Z,0.58
2023-03-12T01:33:36.932Z,0.53
2023-03-12T01:36:06.010Z,0.51
2023-03-12T01:38:36.011Z,0.48
2023-03-12T01:41:04.410Z,0.36
2023-03-12T01:43:35.240Z,0.22
2023-03-12T01:46:18.002Z,0.17
2023-03-12T01:48:50.012Z,0.12
2023-03-12T01:51:19.438Z,0.04
2023-03-12T01:53:51.814Z,0.01
2023-03-12T01:56:20.717Z,-0.08
2023-03-12T01:58:52.517Z,-0.08
2023-03-12T02:01:21.556Z,-0.17
2023-03-12T02:03:53.265Z,-0.23
2023-03-12T02:06:27.232Z,-0.24
2023-03-12T02:08:59.686Z,-0.29
2023-03-12T02:11:27.944Z,-0.32
2023-03-12T02:13:56.730Z,-0.38
2023-03-12T02:16:25.137Z,-0.45
2023-03-12T02:18:54.576Z,-0.40
2023-03-12T02:21:24.676Z,-0.38
2023-03-12T02:24:03.735Z,-0.54
2023-03-12T02:26:36.843Z,-0.56
2023-03-12T02:29:05.913Z,-0.60
2023-03-12T02:31:36.579Z,-0.62
2023-03-12T02:34:05.038Z,-0.64
2023-03-12T02:36:33.433Z,-0.67
2023-03-12T02:39:01.669Z,-0.70
2023-03-12T02:41:31.823Z,-0.67
2023-03-12T02:44:04.401Z,-0.75
2023-03-12T02:46:35.447Z,-0.79
2023-03-12T02:49:04.046Z,-0.85
2023-03-12T02:51:32.648Z,-0.92
2023-03-12T02:54:00.978Z,-0.97
2023-03-12T02:56:30.380Z,-0.96
2023-03-12T02:58:59.315Z,-0.98
2023-03-12T03:01:29.510Z,-0.91
2023-03-12T03:03:57.952Z,-0.81
2023-03-12T03:06:26.408Z,-0.79
2023-03-12T03:08:55.424Z,-0.72
2023-03-12T03:11:24.400Z,-0.62
2023-03-12T03:13:55.826Z,-0.46
2023-03-12T03:16:25.128Z,-0.51
2023-03-12T03:18:56.752Z,-0.69
2023-03-12T03:21:25.002Z,-0.48
2023-03-12T03:23:53.466Z,-0.57
2023-03-12T03:26:23.463Z,-0.83
2023-03-12T03:28:52.153Z,-0.92
2023-03-12T03:31:20.859Z,-0.87
2023-03-12T03:33:49.765Z,-0.97
2023-03-12T03:36:19.928Z,-0.96
2023-03-12T03:38:56.490Z,-1.02
2023-03-12T03:41:26.302Z,-0.97
2023-03-12T03:43:58.533Z,-1.05
2023-03-12T03:46:27.484Z,-1.03
2023-03-12T03:49:01.593Z,-0.96
2023-03-12T03:51:32.244Z,-0.93
2023-03-12T03:54:05.992Z,-1.00
2023-03-12T03:56:34.384Z,-1.21
2023-03-12T03:59:04.210Z,-1.37
2023-03-12T04:01:34.397Z,-1.45
2023-03-12T04:04:03.429Z,-1.36
2023-03-12T04:06:35.084Z,-1.46
2023-03-12T04:09:03.594Z,-1.51
2023-03-12T04:11:33.331Z,-1.62
2023-03-12T04:14:02.930Z,-1.58
2023-03-12T04:16:34.040Z,-1.39
2023-03-12T04:19:03.713Z,-1.65
2023-03-12T04:21:32.030Z,-1.54
2023-03-12T04:24:01.767Z,-1.68
2023-03-12T04:26:33.896Z,-1.76
2023-03-12T04:29:03.327Z,-1.75
2023-03-12T04:31:31.607Z,-1.76
2023-03-12T04:34:00.142Z,-1.68
2023-03-12T04:36:28.809Z,-1.72
2023-03-12T04:38:58.171Z,-2.04
2023-03-12T04:41:32.397Z,-2.10
2023-03-12T04:44:05.722Z,-2.20
2023-03-12T04:46:35.790Z,-2.05
2023-03-12T04:49:04.838Z,-2.02
2023-03-12T04:51:35.903Z,-2.05
2023-03-12T04:54:05.952Z,-2.17
2023-03-12T04:56:37.909Z,-2.11
2023-03-12T04:59:06.637Z,-2.12
2023-03-12T05:01:37.339Z,-2.10
2023-03-12T05:04:10.757Z,-2.05
2023-03-12T05:06:39.203Z,-2.13
2023-03-12T05:09:07.766Z,-2.11
2023-03-12T05:11:39.817Z,-2.12
2023-03-12T05:14:10.751Z,-1.99
2023-03-12T05:16:39.437Z,-2.02
2023-03-12T05:19:08.124Z,-2.14
2023-03-12T05:21:36.859Z,-2.26
2023-03-12T05:24:05.803Z,-2.33
2023-03-12T05:26:34.594Z,-2.27
2023-03-12T05:29:12.640Z,-2.25
2023-03-12T05:31:42.174Z,-2.26
2023-03-12T05:34:13.420Z,-2.20
2023-03-12T05:36:44.124Z,-2.14
2023-03-12T05:39:13.952Z,-2.10
2023-03-12T05:41:45.033Z,-2.01
2023-03-12T05:44:25.990Z,-1.99
2023-03-12T05:46:58.823Z,-1.95
2023-03-12T05:49:28.313Z,-1.91
2023-03-12T05:51:58.064Z,-1.78
2023-03-12T05:54:27.182Z,-1.69
2023-03-12T05:56:56.162Z,-1.57
2023-03-12T05:59:27.679Z,-1.49
2023-03-12T06:01:57.241Z,-1.43
2023-03-12T06:04:25.879Z,-1.43
2023-03-12T06:06:55.052Z,-1.47
2023-03-12T06:09:25.845Z,-1.45
2023-03-12T06:11:55.239Z,-1.49
2023-03-12T06:14:25.792Z,-1.35
2023-03-12T06:16:58.523Z,-1.24
2023-03-12T06:19:27.700Z,-1.12
2023-03-12T06:21:59.253Z,-0.97
2023-03-12T06:24:33.973Z,-0.87
2023-03-12T06:27:05.348Z,-0.84
2023-03-12T06:29:33.783Z,-0.79
2023-03-12T06:32:06.437Z,-0.68
2023-03-12T06:34:34.826Z,-0.55
2023-03-12T06:37:03.610Z,-0.49
2023-03-12T06:39:34.309Z,-0.40
2023-03-12T06:42:02.712Z,-0.28
2023-03-12T06:44:30.978Z,-0.20
2023-03-12T06:46:59.495Z,-0.19
2023-03-12T06:49:32.289Z,-0.10
2023-03-12T06:52:00.636Z,0.11
2023-03-12T06:54:28.923Z,0.31
2023-03-12T06:56:59.174Z,0.33
2023-03-12T06:59:28.609Z,0.27
2023-03-12T07:01:57.141Z,0.19
2023-03-12T07:04:25.446Z,0.26
2023-03-12T07:06:55.386Z,0.38
2023-03-12T07:09:24.369Z,0.74
2023-03-12T07:11:52.703Z,0.58
2023-03-12T07:14:21.529Z,0.62
2023-03-12T07:16:49.892Z,0.66
2023-03-12T07:19:19.689Z,0.77
2023-03-12T07:21:47.937Z,0.80
2023-03-12T07:24:17.533Z,0.89
2023-03-12T07:26:46.162Z,0.92
2023-03-12T07:29:14.442Z,0.98
2023-03-12T07:31:42.940Z,0.99
2023-03-12T07:34:11.529Z,1.10
2023-03-12T07:36:40.005Z,1.24
2023-03-12T07:39:08.988Z,1.25
2023-03-12T07:41:39.207Z,1.27
2023-03-12T07:44:08.199Z,1.46
2023-03-12T07:46:36.617Z,1.39
2023-03-12T07:49:05.191Z,1.31
2023-03-12T07:51:33.463Z,1.50
2023-03-12T07:54:01.764Z,1.55
2023-03-12T07:56:30.313Z,1.67
2023-03-12T07:59:00.073Z,1.65
2023-03-12T08:01:32.222Z,1.75
2023-03-12T08:04:01.115Z,1.82
2023-03-12T08:06:29.667Z,1.87
2023-03-12T08:08:57.913Z,2.00
2023-03-12T08:11:26.194Z,1.92
2023-03-12T08:13:54.442Z,2.13
2023-03-12T08:16:24.195Z,2.28
2023-03-12T08:18:52.824Z,2.51
2023-03-12T08:21:21.081Z,2.69
2023-03-12T08:23:49.872Z,2.82
2023-03-12T08:26:18.373Z,2.94
2023-03-12T08:28:46.664Z,3.25
2023-03-12T08:31:15.144Z,3.41
2023-03-12T08:33:47.003Z,3.54
2023-03-12T08:36:17.030Z,3.84
2023-03-12T08:38:45.343Z,4.34
2023-03-12T08:41:13.688Z,4.68
2023-03-12T08:43:44.475Z,3.86
2023-03-12T08:46:14.122Z,3.77
2023-03-12T08:48:42.503Z,4.21
2023-03-12T08:51:13.398Z,4.34
2023-03-12T08:53:42.725Z,4.66
2023-03-12T08:56:12.010Z,4.65
2023-03-12T08:58:40.335Z,4.89
2023-03-12T09:01:12.488Z,5.27
2023-03-12T09:03:42.299Z,5.53
2023-03-12T09:06:16.868Z,5.66
2023-03-12T09:08:45.999Z,6.03
2023-03-12T09:11:15.605Z,5.77
2023-03-12T09:14:22.273Z,6.39
2023-03-12T09:16:32.705Z,6.74
2023-03-12T09:19:01.313Z,6.85
2023-03-12T09:21:31.087Z,6.50
2023-03-12T09:23:59.614Z,6.50
2023-03-12T09:26:27.987Z,7.01
2023-03-12T09:28:57.999Z,6.78
2023-03-12T09:31:26.890Z,6.64
2023-03-12T09:33:55.424Z,7.40
2023-03-12T09:36:23.912Z,7.70
2023-03-12T09:39:25.526Z,7.66
2023-03-12T09:41:55.117Z,7.87
2023-03-12T09:44:30.964Z,7.97
2023-03-12T09:47:03.634Z,7.70
2023-03-12T09:49:35.997Z,7.11
2023-03-12T09:52:08.759Z,7.14
2023-03-12T09:54:45.278Z,7.48
2023-03-12T09:57:19.118Z,7.48
2023-03-12T09:59:47.599Z,8.17
2023-03-12T10:02:38.872Z,8.34
2023-03-12T10:05:08.517Z,8.54
2023-03-12T10:07:39.381Z,8.19
2023-03-12T10:10:46.359Z,8.24
2023-03-12T10:13:43.791Z,8.38
2023-03-12T10:16:26.273Z,8.53
2023-03-12T10:19:07.399Z,9.07
2023-03-12T10:21:40.342Z,9.39
2023-03-12T10:24:18.022Z,8.95
2023-03-12T10:26:51.036Z,9.36
2023-03-12T10:29:25.700Z,10.33
2023-03-12T10:31:59.096Z,10.18
2023-03-12T10:34:32.334Z,10.38
2023-03-12T10:37:02.260Z,10.91
2023-03-12T10:39:30.607Z,10.40
2023-03-12T10:42:01.607Z,10.24
2023-03-12T10:44:31.878Z,10.41
2023-03-12T10:47:08.326Z,10.27
2023-03-12T10:49:40.529Z,10.29
2023-03-12T10:52:17.223Z,10.53
2023-03-12T10:54:46.794Z,10.69
2023-03-12T10:57:16.455Z,10.32
2023-03-12T10:59:48.864Z,10.67
2023-03-12T11:02:36.049Z,10.19
2023-03-12T11:05:21.128Z,10.89
2023-03-12T11:07:50.424Z,10.15
2023-03-12T11:10:21.918Z,10.55
2023-03-12T11:13:00.545Z,11.13
2023-03-12T11:15:33.526Z,10.60
2023-03-12T11:18:21.391Z,10.56
2023-03-12T11:20:53.438Z,10.79
2023-03-12T11:23:25.328Z,10.84
2023-03-12T11:25:57.254Z,11.08
2023-03-12T11:28:29.889Z,10.59
2023-03-12T11:30:59.837Z,11.02
2023-03-12T11:33:28.321Z,11.17
2023-03-12T11:36:11.002Z,10.94
2023-03-12T11:38:41.764Z,11.23
2023-03-12T11:41:24.269Z,10.60
2023-03-12T11:43:59.829Z,10.84
2023-03-12T11:46:36.897Z,10.97
2023-03-12T11:49:15.038Z,11.05
2023-03-12T11:51:48.334Z,11.36
2023-03-12T11:54:32.739Z,11.12
2023-03-12T11:57:03.744Z,11.22
2023-03-12T11:59:51.453Z,12.32
2023-03-12T12:02:42.097Z,12.42
2023-03-12T12:05:22.107Z,12.05
2023-03-12T12:08:01.842Z,11.69
2023-03-12T12:10:32.912Z,12.55
2023-03-12T12:13:09.738Z,12.42
2023-03-12T12:15:42.479Z,12.58
2023-03-12T12:18:25.858Z,12.61
2023-03-12T12:20:59.341Z,11.66
2023-03-12T12:23:38.477Z,12.31
2023-03-12T12:26:10.072Z,13.09
2023-03-12T12:29:07.344Z,13.56
2023-03-12T12:31:41.357Z,13.37
2023-03-12T12:34:24.761Z,13.81
2023-03-12T12:36:57.493Z,13.52
2023-03-12T12:42:16.515Z,13.12
2023-03-12T12:44:48.485Z,11.95
2023-03-12T12:47:20.673Z,11.88
2023-03-12T12:49:51.005Z,11.73
2023-03-12T12:52:22.164Z,12.37
2023-03-12T12:54:57.933Z,12.44
2023-03-12T12:57:30.622Z,12.17
2023-03-12T13:00:11.371Z,11.65
2023-03-12T13:02:42.026Z,11.96
2023-03-12T13:05:21.114Z,11.82
2023-03-12T13:07:49.928Z,11.57
2023-03-12T13:10:53.115Z,11.14
2023-03-12T13:13:30.685Z,11.32
2023-03-12T13:16:30.207Z,11.66
2023-03-12T13:19:08.537Z,11.91
2023-03-12T13:21:40.370Z,10.93
2023-03-12T13:24:18.523Z,11.66
2023-03-12T13:26:54.582Z,12.12
2023-03-12T13:29:41.274Z,12.88
2023-03-12T13:32:40.450Z,12.88
2023-03-12T13:35:32.524Z,12.99
2023-03-12T13:38:06.084Z,12.73
2023-03-12T13:40:55.178Z,13.20
2023-03-12T13:43:44.346Z,12.96
2023-03-12T13:46:43.190Z,13.06
2023-03-12T13:49:20.540Z,13.03
2023-03-12T13:52:02.896Z,13.19
2023-03-12T13:54:35.963Z,12.62
2023-03-12T13:57:13.444Z,13.07
2023-03-12T13:59:46.370Z,13.35
2023-03-12T14:02:27.125Z,14.07
2023-03-12T14:05:04.143Z,13.92
2023-03-12T14:07:58.145Z,13.88
2023-03-12T14:10:38.914Z,12.77
2023-03-12T14:13:24.762Z,12.15
2023-03-12T14:16:00.502Z,12.04
2023-03-12T14:18:36.805Z,12.83
2023-03-12T14:21:09.499Z,13.15
2023-03-12T14:23:47.508Z,13.56
2023-03-12T14:26:22.127Z,14.05
2023-03-12T14:29:04.951Z,15.03
2023-03-12T14:31:37.011Z,14.14
2023-03-12T14:34:11.089Z,13.91
2023-03-12T14:36:45.285Z,13.34
2023-03-12T14:39:35.004Z,13.80
2023-03-12T14:42:06.107Z,13.34
2023-03-12T14:44:36.870Z,13.27
2023-03-12T14:47:10.214Z,13.26
2023-03-12T14:49:46.863Z,13.75
2023-03-12T14:52:16.556Z,13.67
2023-03-12T14:54:58.565Z,14.55
2023-03-12T14:57:28.954Z,14.01
2023-03-12T14:59:58.789Z,13.86
2023-03-12T15:02:28.987Z,13.60
2023-03-12T15:05:02.997Z,14.19
2023-03-12T15:07:35.304Z,13.85
2023-03-12T15:10:09.696Z,14.09
2023-03-12T15:12:41.337Z,14.13
2023-03-12T15:15:13.532Z,13.79
2023-03-12T15:17:48.127Z,13.76
2023-03-12T15:20:23.266Z,13.59
2023-03-12T15:22:57.064Z,13.05
2023-03-12T15:25:29.300Z,12.22
2023-03-12T15:28:10.842Z,11.99
2023-03-12T15:30:44.776Z,11.26
2023-03-12T15:33:17.421Z,11.12
2023-03-12T15:36:02.193Z,11.13
2023-03-12T15:38:35.683Z,11.44
2023-03-12T15:41:09.640Z,11.75
2023-03-12T15:43:39.921Z,11.90
2023-03-12T15:46:09.195Z,11.88
2023-03-12T15:48:41.345Z,11.83
2023-03-12T15:51:29.210Z,11.41
2023-03-12T15:54:04.275Z,11.55
2023-03-12T15:56:38.860Z,11.44
2023-03-12T15:59:29.016Z,11.51
2023-03-12T16:02:00.972Z,11.73
2023-03-12T16:04:30.850Z,11.89
2023-03-12T16:07:05.779Z,11.89
2023-03-12T16:09:38.401Z,11.58
2023-03-12T16:12:12.936Z,11.32
2023-03-12T16:14:43.381Z,11.37
2023-03-12T16:17:18.521Z,11.26
2023-03-12T16:19:49.762Z,11.25
2023-03-12T16:22:23.296Z,10.85
2023-03-12T16:24:53.106Z,10.80
2023-03-12T16:27:32.069Z,10.64
2023-03-12T16:30:03.632Z,9.96
2023-03-12T16:32:36.280Z,9.66
2023-03-12T16:35:18.423Z,9.42
2023-03-12T16:37:52.872Z,9.03
2023-03-12T16:40:32.859Z,8.88
2023-03-12T16:43:07.909Z,8.37
2023-03-12T16:45:40.926Z,8.12
2023-03-12T16:48:16.894Z,8.04
2023-03-12T16:50:56.738Z,7.81
2023-03-12T16:53:30.746Z,7.64
2023-03-12T16:56:04.834Z,7.51
2023-03-12T16:58:35.705Z,7.28
2023-03-12T17:01:06.131Z,7.27
2023-03-12T17:03:40.335Z,7.12
2023-03-12T17:06:17.796Z,6.97
2023-03-12T17:08:50.241Z,6.77
2023-03-12T17:11:23.016Z,6.90
2023-03-12T17:13:56.472Z,6.62
2023-03-12T17:16:27.682Z,6.55
2023-03-12T17:18:58.078Z,6.63
2023-03-12T17:21:28.202Z,6.59
2023-03-12T17:24:02.089Z,6.51
2023-03-12T17:26:33.693Z,6.51
2023-03-12T17:29:05.828Z,6.44
2023-03-12T17:31:38.489Z,6.39
2023-03-12T17:34:10.359Z,6.38
2023-03-12T17:36:44.419Z,6.24
2023-03-12T17:39:20.542Z,6.10
2023-03-12T17:41:52.179Z,5.95
2023-03-12T17:44:32.833Z,5.87
2023-03-12T17:47:02.765Z,5.79
2023-03-12T17:49:34.741Z,5.71
2023-03-12T17:52:06.294Z,5.63
2023-03-12T17:54:40.540Z,5.54
2023-03-12T17:57:31.547Z,5.44
2023-03-12T18:00:14.660Z,5.36
2023-03-12T18:02:46.084Z,5.26
2023-03-12T18:05:16.334Z,5.22
2023-03-12T18:07:46.409Z,5.22
2023-03-12T18:10:21.608Z,5.20
2023-03-12T18:12:53.621Z,5.10
2023-03-12T18:15:23.637Z,5.00
2023-03-12T18:17:57.057Z,4.83
2023-03-12T18:20:46.319Z,4.73
2023-03-12T18:23:16.405Z,4.72
2023-03-12T18:25:49.047Z,4.66
2023-03-12T18:28:19.355Z,4.73
2023-03-12T18:30:49.946Z,4.88
2023-03-12T18:33:20.402Z,4.82
2023-03-12T18:35:52.540Z,4.68
2023-03-12T18:38:28.214Z,4.59
2023-03-12T18:41:12.218Z,4.61
2023-03-12T18:43:46.560Z,4.58
2023-03-12T18:46:19.769Z,4.48
2023-03-12T18:48:51.812Z,4.46
2023-03-12T18:51:22.265Z,4.46
2023-03-12T18:53:54.295Z,4.66
2023-03-12T18:56:28.634Z,4.57
2023-03-12T18:59:00.124Z,4.65
2023-03-12T19:01:31.004Z,4.53
2023-03-12T19:04:02.957Z,4.47
2023-03-12T19:06:48.127Z,4.37
2023-03-12T19:09:21.423Z,4.10
2023-03-12T19:11:53.520Z,3.99
2023-03-12T19:14:28.360Z,3.88
2023-03-12T19:16:58.699Z,3.81
2023-03-12T19:19:33.360Z,4.07
2023-03-12T19:22:07.374Z,4.02
2023-03-12T19:24:37.815Z,3.93
2023-03-12T19:27:11.855Z,3.91
2023-03-12T19:29:43.541Z,3.73
2023-03-12T19:32:18.341Z,3.97
2023-03-12T19:34:52.321Z,4.25
2023-03-12T19:37:22.355Z,4.11
2023-03-12T19:39:52.672Z,3.92
2023-03-12T19:42:25.864Z,3.69
2023-03-12T19:45:03.300Z,3.49
2023-03-12T19:47:35.149Z,3.23
2023-03-12T19:50:06.069Z,3.31
2023-03-12T19:52:35.427Z,3.19
2023-03-12T19:55:12.143Z,3.16
2023-03-12T19:57:47.361Z,3.07
2023-03-12T20:00:23.316Z,2.94
2023-03-12T20:02:54.462Z,2.81
2023-03-12T20:05:34.242Z,3.02
2023-03-12T20:08:07.632Z,3.14
2023-03-12T20:10:37.667Z,3.34
2023-03-12T20:13:17.781Z,3.32
2023-03-12T20:15:49.560Z,3.36
2023-03-12T20:18:21.701Z,3.41
2023-03-12T20:20:53.927Z,3.37
2023-03-12T20:23:23.617Z,2.96
2023-03-12T20:25:55.294Z,2.71
2023-03-12T20:28:29.512Z,2.73
2023-03-12T20:31:09.624Z,2.70
2023-03-12T20:33:45.802Z,2.64
2023-03-12T20:36:22.905Z,2.56
2023-03-12T20:38:53.827Z,2.51
2023-03-12T20:41:23.668Z,2.26
2023-03-12T20:43:58.095Z,2.20
2023-03-12T20:46:27.909Z,2.27
2023-03-12T20:48:58.116Z,2.09
2023-03-12T20:51:29.011Z,1.85
2023-03-12T20:54:02.338Z,1.76
2023-03-12T20:56:32.272Z,1.66
2023-03-12T20:59:05.620Z,1.62
2023-03-12T21:01:36.695Z,1.59
2023-03-12T21:04:07.390Z,1.54
2023-03-12T21:06:37.722Z,1.48
2023-03-12T21:09:11.978Z,1.80
2023-03-12T21:11:42.367Z,1.76
2023-03-12T21:14:13.776Z,1.60
2023-03-12T21:17:15.190Z,2.01
2023-03-12T21:19:55.567Z,1.83
2023-03-12T21:22:26.840Z,1.89
2023-03-12T21:25:09.177Z,1.84
2023-03-12T21:27:49.904Z,1.59
2023-03-12T21:30:20.932Z,1.72
2023-03-12T21:32:50.191Z,1.76
2023-03-12T21:35:20.401Z,1.54
2023-03-12T21:37:49.229Z,1.66
2023-03-12T21:40:18.302Z,1.81
2023-03-12T21:42:46.837Z,1.81
2023-03-12T21:45:15.898Z,1.79
2023-03-12T21:47:45.850Z,1.61
2023-03-12T21:50:17.263Z,1.49
2023-03-12T21:52:49.158Z,1.75
2023-03-12T21:55:18.604Z,1.79
2023-03-12T21:57:47.073Z,1.37
2023-03-12T22:00:16.292Z,1.31
2023-03-12T22:02:47.425Z,1.61
2023-03-12T22:05:15.993Z,1.41
2023-03-12T22:07:44.353Z,1.71
2023-03-12T22:10:13.003Z,1.60
2023-03-12T22:12:41.887Z,1.46
2023-03-12T22:15:11.158Z,1.53
2023-03-12T22:17:39.477Z,1.24
2023-03-12T22:20:11.235Z,1.06
2023-03-12T22:22:39.502Z,0.91
2023-03-12T22:25:08.478Z,0.91
2023-03-12T22:27:36.752Z,0.85
2023-03-12T22:30:06.320Z,1.09
2023-03-12T22:32:34.760Z,1.05
2023-03-12T22:35:03.104Z,0.80
2023-03-12T22:37:32.807Z,0.84
2023-03-12T22:40:06.883Z,0.84
2023-03-12T22:42:35.177Z,1.20
2023-03-12T22:45:03.848Z,1.16
2023-03-12T22:47:32.211Z,1.25
2023-03-12T22:50:00.508Z,1.06
2023-03-12T22:52:28.961Z,0.94
2023-03-12T22:54:58.711Z,0.76
2023-03-12T22:57:27.055Z,0.84
2023-03-12T22:59:55.365Z,0.88
2023-03-12T23:02:23.640Z,0.82
2023-03-12T23:04:52.034Z,0.88
2023-03-12T23:07:20.373Z,0.97
2023-03-12T23:09:49.088Z,0.85
2023-03-12T23:12:18.800Z,0.73
2023-03-12T23:14:47.100Z,0.78
2023-03-12T23:17:15.451Z,0.79
2023-03-12T23:19:43.906Z,0.85
2023-03-12T23:22:12.335Z,0.83
2023-03-12T23:24:40.600Z,0.82
2023-03-12T23:27:09.276Z,0.88
2023-03-12T23:29:38.968Z,0.97
2023-03-12T23:32:07.977Z,0.99
2023-03-12T23:34:36.441Z,1.10
2023-03-12T23:37:05.145Z,1.15
2023-03-12T23:39:42.165Z,1.11
2023-03-12T23:42:13.326Z,1.00
2023-03-12T23:44:43.025Z,1.09
2023-03-12T23:47:11.355Z,1.15
2023-03-12T23:49:39.629Z,0.89
2023-03-12T23:52:08.132Z,0.90
2023-03-12T23:54:37.038Z,0.87
2023-03-12T23:57:05.478Z,1.03
2023-03-12T23:59:33.867Z,0.92
